sensor_id;sensor_type;location;lat;lon;timestamp;P1;durP1;ratioP1;P2;durP2;ratioP2
35877;SDS011;21982;49.804;24.072;2023-03-01T00:01:03;40.53;;;21.23;;
35877;SDS011;21982;49.804;24.072;2023-03-01T00:03:32;44.10;;;24.77;;
35877;SDS011;21982;49.804;24.072;2023-03-01T00:05:58;46.72;;;22.85;;
35877;SDS011;21982;49.804;24.072;2023-03-01T00:08:24;44.17;;;23.13;;
35877;SDS011;21982;49.804;24.072;2023-03-01T00:10:59;40.95;;;21.23;;
35877;SDS011;21982;49.804;24.072;2023-03-01T00:13:30;33.60;;;18.37;;
35877;SDS011;21982;49.804;24.072;2023-03-01T00:15:56;36.33;;;18.00;;
35877;SDS011;21982;49.804;24.072;2023-03-01T00:18:21;35.08;;;16.90;;
35877;SDS011;21982;49.804;24.072;2023-03-01T00:20:53;32.47;;;17.52;;
35877;SDS011;21982;49.804;24.072;2023-03-01T00:23:20;36.33;;;17.70;;
35877;SDS011;21982;49.804;24.072;2023-03-01T00:25:46;34.40;;;17.65;;
35877;SDS011;21982;49.804;24.072;2023-03-01T00:28:11;38.45;;;19.45;;
35877;SDS011;21982;49.804;24.072;2023-03-01T00:30:37;31.80;;;17.67;;
35877;SDS011;21982;49.804;24.072;2023-03-01T00:33:02;33.65;;;17.45;;
35877;SDS011;21982;49.804;24.072;2023-03-01T00:35:31;34.05;;;18.92;;
35877;SDS011;21982;49.804;24.072;2023-03-01T00:37:58;35.10;;;18.70;;
35877;SDS011;21982;49.804;24.072;2023-03-01T00:40:24;42.30;;;22.73;;
35877;SDS011;21982;49.804;24.072;2023-03-01T00:42:51;39.00;;;21.00;;
35877;SDS011;21982;49.804;24.072;2023-03-01T00:45:16;45.50;;;22.85;;
35877;SDS011;21982;49.804;24.072;2023-03-01T00:47:42;47.57;;;21.70;;
35877;SDS011;21982;49.804;24.072;2023-03-01T00:50:10;44.30;;;24.92;;
35877;SDS011;21982;49.804;24.072;2023-03-01T00:52:37;42.13;;;23.33;;
35877;SDS011;21982;49.804;24.072;2023-03-01T00:55:02;43.60;;;24.15;;
35877;SDS011;21982;49.804;24.072;2023-03-01T00:57:29;45.50;;;23.63;;
35877;SDS011;21982;49.804;24.072;2023-03-01T00:59:54;39.97;;;21.67;;
35877;SDS011;21982;49.804;24.072;2023-03-01T01:02:20;34.28;;;20.13;;
35877;SDS011;21982;49.804;24.072;2023-03-01T01:04:46;36.33;;;20.50;;
35877;SDS011;21982;49.804;24.072;2023-03-01T01:07:12;46.40;;;23.83;;
35877;SDS011;21982;49.804;24.072;2023-03-01T01:09:42;43.45;;;23.70;;
35877;SDS011;21982;49.804;24.072;2023-03-01T01:12:07;49.87;;;24.20;;
35877;SDS011;21982;49.804;24.072;2023-03-01T01:14:33;39.47;;;21.70;;
35877;SDS011;21982;49.804;24.072;2023-03-01T01:16:58;42.57;;;21.27;;
35877;SDS011;21982;49.804;24.072;2023-03-01T01:21:59;41.37;;;22.37;;
35877;SDS011;21982;49.804;24.072;2023-03-01T01:24:24;40.60;;;22.90;;
35877;SDS011;21982;49.804;24.072;2023-03-01T01:26:50;41.23;;;24.47;;
35877;SDS011;21982;49.804;24.072;2023-03-01T01:29:15;39.30;;;21.77;;
35877;SDS011;21982;49.804;24.072;2023-03-01T01:31:41;37.43;;;20.63;;
35877;SDS011;21982;49.804;24.072;2023-03-01T01:34:08;37.57;;;21.73;;
35877;SDS011;21982;49.804;24.072;2023-03-01T01:36:39;44.63;;;24.17;;
35877;SDS011;21982;49.804;24.072;2023-03-01T01:39:06;38.20;;;20.83;;
35877;SDS011;21982;49.804;24.072;2023-03-01T01:41:32;46.60;;;26.30;;
35877;SDS011;21982;49.804;24.072;2023-03-01T01:46:40;47.27;;;25.23;;
35877;SDS011;21982;49.804;24.072;2023-03-01T01:49:29;47.23;;;25.67;;
35877;SDS011;21982;49.804;24.072;2023-03-01T01:54:34;58.07;;;29.43;;
35877;SDS011;21982;49.804;24.072;2023-03-01T01:57:18;57.80;;;27.43;;
35877;SDS011;21982;49.804;24.072;2023-03-01T01:59:49;60.78;;;30.20;;
35877;SDS011;21982;49.804;24.072;2023-03-01T02:02:19;50.07;;;27.87;;
35877;SDS011;21982;49.804;24.072;2023-03-01T02:04:45;59.20;;;29.13;;
35877;SDS011;21982;49.804;24.072;2023-03-01T02:07:19;73.80;;;33.20;;
35877;SDS011;21982;49.804;24.072;2023-03-01T02:09:48;65.53;;;32.50;;
35877;SDS011;21982;49.804;24.072;2023-03-01T02:12:15;57.80;;;30.87;;
35877;SDS011;21982;49.804;24.072;2023-03-01T02:14:42;58.13;;;28.30;;
35877;SDS011;21982;49.804;24.072;2023-03-01T02:22:28;45.90;;;23.20;;
35877;SDS011;21982;49.804;24.072;2023-03-01T02:32:59;45.83;;;24.70;;
35877;SDS011;21982;49.804;24.072;2023-03-01T02:35:27;48.70;;;28.50;;
35877;SDS011;21982;49.804;24.072;2023-03-01T16:23:19;27.30;;;14.73;;
35877;SDS011;21982;49.804;24.072;2023-03-01T16:25:49;30.05;;;13.32;;
35877;SDS011;21982;49.804;24.072;2023-03-01T16:28:20;23.85;;;13.20;;
35877;SDS011;21982;49.804;24.072;2023-03-01T16:30:46;34.28;;;15.05;;
35877;SDS011;21982;49.804;24.072;2023-03-01T16:33:13;33.45;;;14.85;;
35877;SDS011;21982;49.804;24.072;2023-03-01T16:35:39;31.92;;;15.57;;
35877;SDS011;21982;49.804;24.072;2023-03-01T16:38:05;37.45;;;15.38;;
35877;SDS011;21982;49.804;24.072;2023-03-01T16:40:31;26.10;;;14.95;;
35877;SDS011;21982;49.804;24.072;2023-03-01T16:45:32;29.55;;;16.23;;
35877;SDS011;21982;49.804;24.072;2023-03-01T16:48:02;31.98;;;17.98;;
35877;SDS011;21982;49.804;24.072;2023-03-01T16:50:32;33.95;;;17.33;;
35877;SDS011;21982;49.804;24.072;2023-03-01T16:52:58;31.10;;;17.27;;
35877;SDS011;21982;49.804;24.072;2023-03-01T16:55:23;34.78;;;18.38;;
35877;SDS011;21982;49.804;24.072;2023-03-01T17:03:55;33.75;;;17.63;;
35877;SDS011;21982;49.804;24.072;2023-03-01T17:06:21;33.28;;;19.20;;
35877;SDS011;21982;49.804;24.072;2023-03-01T17:08:50;34.15;;;19.20;;
35877;SDS011;21982;49.804;24.072;2023-03-01T17:11:19;40.63;;;18.67;;
35877;SDS011;21982;49.804;24.072;2023-03-01T17:13:55;51.75;;;22.17;;
35877;SDS011;21982;49.804;24.072;2023-03-01T17:16:20;50.28;;;26.48;;
35877;SDS011;21982;49.804;24.072;2023-03-01T17:18:46;44.53;;;26.55;;
35877;SDS011;21982;49.804;24.072;2023-03-01T17:21:12;70.65;;;35.95;;
35877;SDS011;21982;49.804;24.072;2023-03-01T17:23:39;98.93;;;52.67;;
35877;SDS011;21982;49.804;24.072;2023-03-01T17:26:06;126.20;;;58.58;;
35877;SDS011;21982;49.804;24.072;2023-03-01T17:28:37;85.20;;;48.95;;
35877;SDS011;21982;49.804;24.072;2023-03-01T17:31:05;59.28;;;35.97;;
35877;SDS011;21982;49.804;24.072;2023-03-01T17:33:31;47.47;;;26.65;;
35877;SDS011;21982;49.804;24.072;2023-03-01T17:35:56;47.65;;;25.13;;
35877;SDS011;21982;49.804;24.072;2023-03-01T17:38:23;53.60;;;26.48;;
35877;SDS011;21982;49.804;24.072;2023-03-01T17:40:50;46.80;;;21.55;;
35877;SDS011;21982;49.804;24.072;2023-03-01T17:43:16;43.53;;;19.70;;
35877;SDS011;21982;49.804;24.072;2023-03-01T17:45:42;35.92;;;19.80;;
35877;SDS011;21982;49.804;24.072;2023-03-01T17:48:15;35.10;;;19.33;;
35877;SDS011;21982;49.804;24.072;2023-03-01T17:50:41;33.90;;;19.08;;
35877;SDS011;21982;49.804;24.072;2023-03-01T17:53:06;65.45;;;26.92;;
35877;SDS011;21982;49.804;24.072;2023-03-01T17:55:37;53.38;;;28.75;;
35877;SDS011;21982;49.804;24.072;2023-03-01T17:58:04;58.90;;;35.70;;
35877;SDS011;21982;49.804;24.072;2023-03-01T18:00:31;65.32;;;35.65;;
35877;SDS011;21982;49.804;24.072;2023-03-01T18:02:56;66.35;;;37.58;;
35877;SDS011;21982;49.804;24.072;2023-03-01T18:05:22;58.65;;;30.55;;
35877;SDS011;21982;49.804;24.072;2023-03-01T18:07:47;42.50;;;24.30;;
35877;SDS011;21982;49.804;24.072;2023-03-01T18:10:13;42.40;;;23.48;;
35877;SDS011;21982;49.804;24.072;2023-03-01T18:12:38;42.53;;;22.58;;
35877;SDS011;21982;49.804;24.072;2023-03-01T18:15:04;42.30;;;22.27;;
35877;SDS011;21982;49.804;24.072;2023-03-01T18:17:31;49.67;;;23.67;;
35877;SDS011;21982;49.804;24.072;2023-03-01T18:19:56;51.13;;;23.55;;
35877;SDS011;21982;49.804;24.072;2023-03-01T18:22:23;36.88;;;20.40;;
35877;SDS011;21982;49.804;24.072;2023-03-01T18:24:50;33.95;;;20.02;;
35877;SDS011;21982;49.804;24.072;2023-03-01T18:27:16;37.97;;;20.27;;
35877;SDS011;21982;49.804;24.072;2023-03-01T18:29:49;47.80;;;21.00;;
35877;SDS011;21982;49.804;24.072;2023-03-01T18:32:14;37.53;;;20.70;;
35877;SDS011;21982;49.804;24.072;2023-03-01T18:34:40;46.03;;;21.05;;
35877;SDS011;21982;49.804;24.072;2023-03-01T18:37:06;38.60;;;20.13;;
35877;SDS011;21982;49.804;24.072;2023-03-01T18:39:31;41.53;;;21.73;;
35877;SDS011;21982;49.804;24.072;2023-03-01T18:41:57;41.63;;;23.35;;
35877;SDS011;21982;49.804;24.072;2023-03-01T18:44:22;43.65;;;24.60;;
35877;SDS011;21982;49.804;24.072;2023-03-01T18:46:48;51.22;;;24.73;;
35877;SDS011;21982;49.804;24.072;2023-03-01T18:49:14;46.25;;;23.77;;
35877;SDS011;21982;49.804;24.072;2023-03-01T18:51:41;41.60;;;22.30;;
35877;SDS011;21982;49.804;24.072;2023-03-01T18:54:09;45.83;;;24.65;;
35877;SDS011;21982;49.804;24.072;2023-03-01T18:56:40;46.28;;;25.23;;
35877;SDS011;21982;49.804;24.072;2023-03-01T18:59:06;43.42;;;24.90;;
35877;SDS011;21982;49.804;24.072;2023-03-01T19:01:32;48.90;;;26.77;;
35877;SDS011;21982;49.804;24.072;2023-03-01T19:03:57;56.28;;;26.70;;
35877;SDS011;21982;49.804;24.072;2023-03-01T19:06:26;53.28;;;29.00;;
35877;SDS011;21982;49.804;24.072;2023-03-01T19:08:53;50.30;;;25.85;;
35877;SDS011;21982;49.804;24.072;2023-03-01T19:11:19;51.55;;;28.30;;
35877;SDS011;21982;49.804;24.072;2023-03-01T19:13:46;49.58;;;27.45;;
35877;SDS011;21982;49.804;24.072;2023-03-01T19:16:16;54.05;;;26.70;;
35877;SDS011;21982;49.804;24.072;2023-03-01T19:18:44;50.15;;;26.35;;
35877;SDS011;21982;49.804;24.072;2023-03-01T19:21:14;53.70;;;27.20;;
35877;SDS011;21982;49.804;24.072;2023-03-01T19:23:41;45.00;;;26.20;;
35877;SDS011;21982;49.804;24.072;2023-03-01T19:26:07;47.30;;;26.60;;
35877;SDS011;21982;49.804;24.072;2023-03-01T19:28:35;50.28;;;27.75;;
35877;SDS011;21982;49.804;24.072;2023-03-01T19:31:02;51.72;;;28.20;;
35877;SDS011;21982;49.804;24.072;2023-03-01T19:33:31;52.38;;;26.05;;
35877;SDS011;21982;49.804;24.072;2023-03-01T19:35:58;45.25;;;25.88;;
35877;SDS011;21982;49.804;24.072;2023-03-01T19:38:23;49.75;;;25.65;;
35877;SDS011;21982;49.804;24.072;2023-03-01T19:40:50;51.55;;;27.80;;
35877;SDS011;21982;49.804;24.072;2023-03-01T19:43:16;50.78;;;27.05;;
35877;SDS011;21982;49.804;24.072;2023-03-01T19:45:42;42.55;;;24.10;;
35877;SDS011;21982;49.804;24.072;2023-03-01T19:48:07;49.40;;;23.80;;
35877;SDS011;21982;49.804;24.072;2023-03-01T20:35:09;45.75;;;25.33;;
35877;SDS011;21982;49.804;24.072;2023-03-01T20:37:35;43.95;;;23.33;;
35877;SDS011;21982;49.804;24.072;2023-03-01T20:40:01;49.78;;;24.90;;
35877;SDS011;21982;49.804;24.072;2023-03-01T20:42:27;47.55;;;24.00;;
35877;SDS011;21982;49.804;24.072;2023-03-01T20:44:52;45.72;;;23.95;;
35877;SDS011;21982;49.804;24.072;2023-03-01T20:47:18;47.65;;;24.70;;
35877;SDS011;21982;49.804;24.072;2023-03-01T20:49:45;43.40;;;24.80;;
35877;SDS011;21982;49.804;24.072;2023-03-01T20:52:11;47.53;;;25.55;;
35877;SDS011;21982;49.804;24.072;2023-03-01T20:54:36;45.20;;;25.55;;
35877;SDS011;21982;49.804;24.072;2023-03-01T20:57:02;55.55;;;28.27;;
35877;SDS011;21982;49.804;24.072;2023-03-01T20:59:27;48.90;;;27.98;;
35877;SDS011;21982;49.804;24.072;2023-03-01T21:01:53;48.30;;;28.88;;
35877;SDS011;21982;49.804;24.072;2023-03-01T21:04:19;53.35;;;30.60;;
35877;SDS011;21982;49.804;24.072;2023-03-01T21:06:45;53.75;;;28.67;;
35877;SDS011;21982;49.804;24.072;2023-03-01T21:09:11;58.35;;;31.75;;
35877;SDS011;21982;49.804;24.072;2023-03-01T21:11:36;57.40;;;34.47;;
35877;SDS011;21982;49.804;24.072;2023-03-01T21:14:02;71.60;;;37.28;;
35877;SDS011;21982;49.804;24.072;2023-03-01T21:16:29;69.18;;;35.83;;
35877;SDS011;21982;49.804;24.072;2023-03-01T21:18:55;65.75;;;38.63;;
35877;SDS011;21982;49.804;24.072;2023-03-01T21:21:21;66.30;;;34.20;;
35877;SDS011;21982;49.804;24.072;2023-03-01T21:23:47;65.43;;;32.50;;
35877;SDS011;21982;49.804;24.072;2023-03-01T21:28:46;59.75;;;29.15;;
35877;SDS011;21982;49.804;24.072;2023-03-01T21:31:21;63.97;;;34.10;;
35877;SDS011;21982;49.804;24.072;2023-03-01T21:33:56;68.47;;;34.45;;
35877;SDS011;21982;49.804;24.072;2023-03-01T21:36:23;64.35;;;34.55;;
35877;SDS011;21982;49.804;24.072;2023-03-01T21:38:49;67.57;;;35.40;;
35877;SDS011;21982;49.804;24.072;2023-03-01T21:41:17;65.93;;;35.28;;
35877;SDS011;21982;49.804;24.072;2023-03-01T21:43:45;62.15;;;34.38;;
35877;SDS011;21982;49.804;24.072;2023-03-01T21:46:13;53.88;;;30.90;;
35877;SDS011;21982;49.804;24.072;2023-03-01T21:48:42;52.08;;;29.63;;
35877;SDS011;21982;49.804;24.072;2023-03-01T21:51:09;76.32;;;35.15;;
35877;SDS011;21982;49.804;24.072;2023-03-01T21:53:36;85.85;;;47.50;;
35877;SDS011;21982;49.804;24.072;2023-03-01T21:56:02;77.32;;;41.05;;
35877;SDS011;21982;49.804;24.072;2023-03-01T21:58:30;59.83;;;35.67;;
35877;SDS011;21982;49.804;24.072;2023-03-01T22:00:56;54.40;;;29.27;;
35877;SDS011;21982;49.804;24.072;2023-03-01T22:03:32;49.45;;;26.15;;
35877;SDS011;21982;49.804;24.072;2023-03-01T22:05:59;52.65;;;26.90;;
35877;SDS011;21982;49.804;24.072;2023-03-01T22:08:26;50.30;;;27.02;;
35877;SDS011;21982;49.804;24.072;2023-03-01T22:10:55;49.20;;;26.10;;
35877;SDS011;21982;49.804;24.072;2023-03-01T22:13:20;50.75;;;25.23;;
35877;SDS011;21982;49.804;24.072;2023-03-01T22:15:45;43.10;;;24.55;;
35877;SDS011;21982;49.804;24.072;2023-03-01T22:18:11;47.60;;;22.58;;
35877;SDS011;21982;49.804;24.072;2023-03-01T22:20:37;42.67;;;23.27;;
35877;SDS011;21982;49.804;24.072;2023-03-01T22:23:07;44.17;;;23.05;;
35877;SDS011;21982;49.804;24.072;2023-03-01T22:25:38;40.50;;;20.50;;
35877;SDS011;21982;49.804;24.072;2023-03-01T22:28:06;40.47;;;20.15;;
35877;SDS011;21982;49.804;24.072;2023-03-01T22:30:35;48.50;;;22.85;;
35877;SDS011;21982;49.804;24.072;2023-03-01T22:33:01;35.45;;;20.67;;
35877;SDS011;21982;49.804;24.072;2023-03-01T22:35:26;36.28;;;21.70;;
35877;SDS011;21982;49.804;24.072;2023-03-01T22:37:51;40.30;;;21.67;;
35877;SDS011;21982;49.804;24.072;2023-03-01T22:40:18;44.47;;;22.80;;
35877;SDS011;21982;49.804;24.072;2023-03-01T22:42:43;42.55;;;20.70;;
35877;SDS011;21982;49.804;24.072;2023-03-01T22:45:09;41.78;;;21.98;;
35877;SDS011;21982;49.804;24.072;2023-03-01T22:47:35;39.03;;;21.42;;
35877;SDS011;21982;49.804;24.072;2023-03-01T22:50:05;35.05;;;19.80;;
35877;SDS011;21982;49.804;24.072;2023-03-01T22:52:31;36.80;;;20.08;;
35877;SDS011;21982;49.804;24.072;2023-03-01T22:54:57;33.08;;;19.13;;
35877;SDS011;21982;49.804;24.072;2023-03-01T22:57:23;32.20;;;18.45;;
35877;SDS011;21982;49.804;24.072;2023-03-01T22:59:49;47.95;;;24.58;;
35877;SDS011;21982;49.804;24.072;2023-03-01T23:02:14;47.60;;;23.05;;
35877;SDS011;21982;49.804;24.072;2023-03-01T23:04:40;45.22;;;25.15;;
35877;SDS011;21982;49.804;24.072;2023-03-01T23:07:11;46.42;;;25.63;;
35877;SDS011;21982;49.804;24.072;2023-03-01T23:09:36;53.47;;;27.50;;
35877;SDS011;21982;49.804;24.072;2023-03-01T23:12:02;54.67;;;28.58;;
35877;SDS011;21982;49.804;24.072;2023-03-01T23:14:31;49.42;;;28.50;;
35877;SDS011;21982;49.804;24.072;2023-03-01T23:16:57;54.45;;;30.10;;
35877;SDS011;21982;49.804;24.072;2023-03-01T23:19:24;50.50;;;28.40;;
35877;SDS011;21982;49.804;24.072;2023-03-01T23:21:50;42.30;;;23.98;;
35877;SDS011;21982;49.804;24.072;2023-03-01T23:24:18;41.72;;;24.85;;
35877;SDS011;21982;49.804;24.072;2023-03-01T23:26:45;34.45;;;20.67;;
35877;SDS011;21982;49.804;24.072;2023-03-01T23:29:17;56.40;;;30.27;;
35877;SDS011;21982;49.804;24.072;2023-03-01T23:31:43;44.70;;;24.00;;
35877;SDS011;21982;49.804;24.072;2023-03-01T23:34:08;48.67;;;26.23;;
35877;SDS011;21982;49.804;24.072;2023-03-01T23:36:33;58.00;;;31.27;;
35877;SDS011;21982;49.804;24.072;2023-03-01T23:39:01;49.50;;;23.63;;
35877;SDS011;21982;49.804;24.072;2023-03-01T23:41:29;66.70;;;33.88;;
35877;SDS011;21982;49.804;24.072;2023-03-01T23:43:56;60.92;;;32.85;;
35877;SDS011;21982;49.804;24.072;2023-03-01T23:46:24;70.10;;;33.08;;
35877;SDS011;21982;49.804;24.072;2023-03-01T23:48:52;61.53;;;29.42;;
35877;SDS011;21982;49.804;24.072;2023-03-01T23:51:18;49.72;;;25.58;;
35877;SDS011;21982;49.804;24.072;2023-03-01T23:53:45;51.13;;;25.67;;
35877;SDS011;21982;49.804;24.072;2023-03-01T23:56:19;52.42;;;28.20;;
35877;SDS011;21982;49.804;24.072;2023-03-01T23:58:50;61.08;;;29.83;;
